Skip Navigation Links
NOAA logo - Click to go to the NOAA homepage
NOAA's National Weather Service
Alaska Aviation Weather Unit
  NWS logo - Click to go to the NWS homepage
Left Navbar Graphic     08 AKDT = 16 GMT

   
NOAA is celebrating 200 years of science, service, and stewardship. Visit the NOAA 200th celebration Web site to learn more.
USA.gov is the U.S. Government's official Web portal to all Federal, state and local government Web resources and services.
Facebook
NWS on Facebook

Important Change Regarding the AAWU Web Presence

 

Over the last several months, the AAWU has been working to navigate its webpages to a nationally supported server. Security, as well as other needs, have necessitated the change.  In the process, we have made an effort to enhance the functionality of our website, as well as some of our products. As of June 20, 2017, aawu.arh.noaa.gov will be discontinued. The new AAWU web address is weather.gov/aawu. It is now live and will run in-parallel with the old site until it is discontinued. Please send any feedback or questions regarding the new webpages to nws.ar.aawu.webauthors@noaa.gov.  Thank you for your patience during this time of transition.
AAWU Home :: Display TAF Add Bookmark
TAF PAGY 231143Z 2312/2412 02004KT P6SM FEW015 BKN060
     FM231700 VRB04KT P6SM FEW020 SCT060
     FM232000 21012KT P6SM SCT060
     FM240000 21012G20KT P6SM SCT060
      AMD LTD TO CLD VIS AND WIND=
METAR PAGY 231053Z AUTO 00000KT 10SM CLR 07/04 A2989 RMK AO2 SLP121
 T00670044 TSNO=

METAR PAGY 231153Z AUTO 03003KT 10SM SCT018 06/04 A2987 RMK AO2 SLP116
     T00610039 10111 20061 58008 TSNO=

SPECI PAGY 231211Z AUTO 03005KT 10SM BKN019 06/04 A2987 RMK AO2
     T00560039 TSNO=

SPECI PAGY 231221Z AUTO 03004KT 10SM SCT019 06/04 A2987 RMK AO2
     T00560039 TSNO=

METAR PAGY 231253Z AUTO 04003KT 10SM CLR 06/03 A2986 RMK AO2 SLP110
     T00560033 TSNO=

METAR PAGY 231353Z AUTO 03003KT 10SM CLR 06/03 A2985 RMK AO2 SLP108
 T00560033 TSNO=

PAGY 231453Z AUTO 03005KT 10SM CLR 06/04 A2983 RMK AO2 SLP102
     T00610039 58014 TSNO=

METAR PAGY 231553Z AUTO 04003KT 10SM CLR 09/05 A2982 RMK AO2 SLP097
     T00890050 TSNO=


NOAA's National Weather Service
Alaska Aviation Weather Unit
6930 Sand Lake Road
Anchorage, AK 99502-1845
Disclaimer
Credits
Glossary
Privacy Policy
About Us
Career Opportunities
Contact AAWU Internet Services Site last modified: April, 17th 2012